Kajang, Malaysia
Current Conditions -  °F | °C
As of 10:00 AM on Thursday 18 Dec 2014 (Local Time) from WMSA Reporting Station
Broken Clouds Broken Clouds  
Wind Chill: 82°   Ceiling: 28000
Heat Index: 89°   Visibility: 6mi
Dew Point: 75°   Wind: 1mph
Humidity: 79%   Direction: 350°N
Pressure: 29.88"   Gusts: NA
Location:  3°N, 101.8°E
Report Text: WMSA 180200Z 35001KT 9000 FEW020 SCT140 BKN280 28/24 Q1012
Loading
Personal Weather Stations






























Interactive Weather Map New forecast layout! Learn more

10-Day Weather Forecast

Advertisements
Track Severe Weather on mobile